Time;durP1;ratioP1;P1;durP2;ratioP2;P2;SDS_P1;SDS_P2;PMS_P1;PMS_P2;Temp;Humidity;BMP_temperature;BMP_pressure;BME280_temperature;BME280_humidity;BME280_pressure;Samples;Min_cycle;Max_cycle;Signal;HPM_P1;HPM_P2
2021/03/15 00:01:12;;;;;;;6.73;4.27;;;;;;;2.74;100.00;96002.13;5039830;28;20205;-71
2021/03/15 00:03:39;;;;;;;8.17;4.23;;;;;;;2.78;100.00;95997.47;5039992;28;20225;-71
2021/03/15 00:06:06;;;;;;;9.30;4.70;;;;;;;2.77;100.00;96007.06;5039776;28;20212;-71
2021/03/15 00:08:32;;;;;;;8.33;4.37;;;;;;;2.81;100.00;96003.22;5039848;28;20251;-71
2021/03/15 00:10:59;;;;;;;14.47;4.57;;;;;;;2.83;100.00;96003.91;5040582;28;20205;-71
2021/03/15 00:13:26;;;;;;;10.03;4.90;;;;;;;2.85;100.00;95991.59;5039698;28;20688;-71
2021/03/15 00:15:55;;;;;;;8.27;4.13;;;;;;;2.73;100.00;95995.28;5039004;28;20205;-72
2021/03/15 00:18:21;;;;;;;8.20;4.07;;;;;;;2.73;100.00;95984.06;5040005;28;20212;-71
2021/03/15 00:20:47;;;;;;;9.63;4.50;;;;;;;2.72;100.00;95985.81;5040122;28;20228;-71
2021/03/15 00:23:14;;;;;;;8.17;4.10;;;;;;;2.66;100.00;95983.78;5039889;28;20212;-71
2021/03/15 00:25:40;;;;;;;10.67;4.50;;;;;;;2.63;100.00;95978.84;5039259;28;20225;-71
2021/03/15 00:28:06;;;;;;;7.67;4.70;;;;;;;2.58;100.00;95988.84;5039916;28;20225;-71
2021/03/15 00:30:32;;;;;;;8.40;4.20;;;;;;;2.54;100.00;95987.44;5039515;28;20279;-71
2021/03/15 00:33:00;;;;;;;9.03;4.50;;;;;;;2.50;100.00;95985.25;5039632;28;20207;-71
2021/03/15 00:35:26;;;;;;;8.13;4.60;;;;;;;2.57;100.00;95983.75;5039057;28;20232;-71
2021/03/15 00:37:52;;;;;;;9.67;5.07;;;;;;;2.45;100.00;95982.25;5039203;28;20204;-71
2021/03/15 00:40:21;;;;;;;10.73;4.97;;;;;;;2.49;100.00;95978.41;5039595;28;20266;-71
2021/03/15 00:42:50;;;;;;;8.40;4.70;;;;;;;2.52;100.00;95983.34;5039805;28;20217;-71
2021/03/15 00:45:18;;;;;;;8.93;5.10;;;;;;;2.54;100.00;95982.25;5037573;28;20228;-71
2021/03/15 00:47:44;;;;;;;9.20;5.33;;;;;;;2.53;100.00;95980.63;5038615;28;20229;-71
2021/03/15 00:50:17;;;;;;;8.73;4.67;;;;;;;2.48;100.00;95985.41;5040064;28;20271;-71
2021/03/15 00:52:43;;;;;;;10.60;5.03;;;;;;;2.46;100.00;95978.69;5039219;28;20204;-71
2021/03/15 00:55:09;;;;;;;9.87;4.77;;;;;;;2.47;100.00;95981.16;5038528;28;20232;-71
2021/03/15 00:57:35;;;;;;;9.73;4.53;;;;;;;2.46;100.00;95982.09;5039026;28;20205;-71
2021/03/15 01:00:01;;;;;;;8.20;4.67;;;;;;;2.54;100.00;95977.03;5039489;28;20209;-71
2021/03/15 01:02:27;;;;;;;10.60;4.60;;;;;;;2.52;100.00;95978.97;5039221;28;20209;-71
2021/03/15 01:04:53;;;;;;;9.67;4.30;;;;;;;2.48;100.00;95980.22;5039241;28;20282;-71
2021/03/15 01:07:20;;;;;;;8.37;4.87;;;;;;;2.40;100.00;95979.22;5038401;28;20225;-71
2021/03/15 01:09:46;;;;;;;11.03;4.93;;;;;;;2.45;100.00;95977.84;5039016;28;20217;-71
2021/03/15 01:12:12;;;;;;;10.27;4.77;;;;;;;2.42;100.00;95978.13;5038879;28;20248;-71
2021/03/15 01:14:38;;;;;;;11.23;4.70;;;;;;;2.42;100.00;95978.13;5038926;28;20274;-71
2021/03/15 01:17:05;;;;;;;10.37;5.07;;;;;;;2.48;100.00;95972.41;5038239;28;20209;-72
2021/03/15 01:19:31;;;;;;;9.30;4.37;;;;;;;2.53;100.00;95967.63;5038726;28;20208;-71
2021/03/15 01:21:57;;;;;;;7.83;4.50;;;;;;;2.56;100.00;95967.34;5038929;28;20677;-71
2021/03/15 01:24:23;;;;;;;8.30;4.43;;;;;;;2.57;100.00;95976.78;5038490;28;20229;-71
2021/03/15 01:26:49;;;;;;;8.93;3.63;;;;;;;2.50;100.00;95969.66;5037748;28;20231;-71
2021/03/15 01:29:15;;;;;;;6.13;3.87;;;;;;;2.50;100.00;95967.06;5038824;28;20344;-71
2021/03/15 01:31:41;;;;;;;8.53;4.10;;;;;;;2.52;100.00;95962.53;5039198;28;20197;-71
2021/03/15 01:34:07;;;;;;;7.63;3.67;;;;;;;2.52;100.00;95962.53;5038323;28;20775;-71
2021/03/15 01:36:35;;;;;;;5.80;3.60;;;;;;;2.51;100.00;95956.53;5037511;28;20299;-71
2021/03/15 01:39:01;;;;;;;6.17;3.23;;;;;;;2.55;100.00;95952.69;5038405;28;20748;-71
2021/03/15 01:41:28;;;;;;;8.60;3.80;;;;;;;2.57;100.00;95956.00;5038400;28;20215;-71
2021/03/15 01:43:54;;;;;;;5.20;3.00;;;;;;;2.60;100.00;95954.91;5038571;28;20441;-71
2021/03/15 01:46:20;;;;;;;8.23;3.87;;;;;;;2.57;100.00;95945.59;5037175;28;20291;-71
2021/03/15 01:48:46;;;;;;;7.07;3.90;;;;;;;2.55;100.00;95947.50;5038506;28;20347;-71
2021/03/15 01:51:12;;;;;;;7.67;3.47;;;;;;;2.57;100.00;95935.19;5038380;28;20584;-72
2021/03/15 01:53:38;;;;;;;5.93;3.67;;;;;;;2.56;100.00;95938.75;5038323;28;21091;-71
2021/03/15 01:56:06;;;;;;;6.13;3.50;;;;;;;2.55;100.00;95941.47;5037834;28;20208;-71
2021/03/15 01:58:33;;;;;;;7.27;3.60;;;;;;;2.53;100.00;95941.63;5037878;28;20649;-71
2021/03/15 02:00:59;;;;;;;6.93;3.23;;;;;;;2.53;100.00;95936.41;5038175;28;20205;-71
2021/03/15 02:03:25;;;;;;;7.07;3.73;;;;;;;2.56;100.00;95932.72;5038824;28;20211;-71
2021/03/15 02:05:51;;;;;;;6.77;3.60;;;;;;;2.58;100.00;95931.63;5037224;28;20574;-71
2021/03/15 02:08:17;;;;;;;7.50;4.20;;;;;;;2.53;100.00;95917.38;5037703;28;20316;-71
2021/03/15 02:10:43;;;;;;;7.17;4.03;;;;;;;2.53;100.00;95918.22;5038309;28;20220;-74
2021/03/15 02:13:42;;;;;;;7.73;4.00;;;;;;;2.56;100.00;95920.53;5037840;28;20219;-74
2021/03/15 02:16:16;;;;;;;8.00;3.93;;;;;;;2.54;100.00;95919.84;5037224;28;20205;-74
2021/03/15 02:19:01;;;;;;;7.40;4.27;;;;;;;2.58;100.00;95913.44;5037684;28;20677;-74
2021/03/15 02:21:55;;;;;;;9.80;4.17;;;;;;;2.55;100.00;95905.88;5037606;28;20691;-74
2021/03/15 02:24:29;;;;;;;8.37;4.03;;;;;;;2.46;100.00;95905.88;5037881;28;20362;-74
2021/03/15 02:27:38;;;;;;;10.10;4.10;;;;;;;2.47;100.00;95908.34;5036888;28;20633;-74
2021/03/15 02:30:37;;;;;;;7.20;3.70;;;;;;;2.48;100.00;95901.34;5037895;28;20212;-73
2021/03/15 02:33:50;;;;;;;7.20;3.77;;;;;;;2.47;100.00;95897.94;5037719;28;20271;-74
2021/03/15 02:36:20;;;;;;;7.20;4.10;;;;;;;2.53;100.00;95894.81;5036562;28;20273;-73
2021/03/15 02:38:47;;;;;;;7.37;3.60;;;;;;;2.54;100.00;95895.63;5037168;28;20216;-74
2021/03/15 02:41:18;;;;;;;6.40;3.60;;;;;;;2.51;100.00;95895.91;5037457;28;20205;-74
2021/03/15 02:43:48;;;;;;;6.43;4.03;;;;;;;2.53;100.00;95894.81;5037181;28;20769;-73
2021/03/15 02:46:16;;;;;;;8.93;4.10;;;;;;;2.53;100.00;95894.81;5036991;28;21052;-74
2021/03/15 02:48:44;;;;;;;7.67;4.13;;;;;;;2.57;100.00;95897.94;5037689;28;20225;-74
2021/03/15 02:51:12;;;;;;;8.87;4.50;;;;;;;2.62;100.00;95893.16;5037198;28;20208;-74
2021/03/15 02:53:41;;;;;;;7.37;3.87;;;;;;;2.62;100.00;95901.78;5036502;28;20716;-73
2021/03/15 02:56:12;;;;;;;5.67;3.30;;;;;;;2.65;100.00;95891.09;5035894;28;20623;-74
2021/03/15 02:58:40;;;;;;;5.17;2.70;;;;;;;2.62;100.00;95895.75;5036819;28;20196;-74
2021/03/15 03:01:08;;;;;;;6.00;3.77;;;;;;;2.66;100.00;95897.94;5036779;28;20231;-73
2021/03/15 03:03:37;;;;;;;5.70;3.50;;;;;;;2.69;100.00;95894.25;5037167;28;20204;-73
2021/03/15 03:06:05;;;;;;;6.20;3.27;;;;;;;2.69;100.00;95896.84;5036376;28;20216;-74
2021/03/15 03:08:34;;;;;;;7.97;3.37;;;;;;;2.71;100.00;95895.75;5036512;28;20597;-74
2021/03/15 03:11:02;;;;;;;6.53;3.43;;;;;;;2.67;100.00;95902.19;5036588;28;20672;-74
2021/03/15 03:13:31;;;;;;;6.67;4.07;;;;;;;2.67;100.00;95901.38;5036534;28;20679;-73
2021/03/15 03:15:58;;;;;;;8.13;4.33;;;;;;;2.71;100.00;95887.97;5036921;28;20231;-74
2021/03/15 03:18:26;;;;;;;7.80;4.37;;;;;;;2.69;100.00;95887.25;5036764;28;20210;-74
2021/03/15 03:20:54;;;;;;;7.47;3.77;;;;;;;2.71;100.00;95885.34;5036783;28;20622;-74
2021/03/15 03:23:22;;;;;;;7.03;3.23;;;;;;;2.68;100.00;95880.41;5036742;28;20235;-74
2021/03/15 03:25:49;;;;;;;8.60;3.27;;;;;;;2.70;100.00;95886.31;5036584;28;20205;-74
2021/03/15 03:28:18;;;;;;;5.07;3.47;;;;;;;2.71;100.00;95877.56;5036909;28;20236;-74
2021/03/15 03:30:44;;;;;;;5.23;2.80;;;;;;;2.68;100.00;95870.00;5036691;28;20205;-74
2021/03/15 03:33:13;;;;;;;7.47;4.03;;;;;;;2.64;100.00;95871.25;5037053;28;20219;-74
2021/03/15 03:35:39;;;;;;;7.27;3.87;;;;;;;2.57;100.00;95871.94;5035953;28;20815;-74
2021/03/15 03:38:05;;;;;;;8.57;4.23;;;;;;;2.60;100.00;95867.28;5036598;28;20343;-74
2021/03/15 03:40:31;;;;;;;8.50;3.80;;;;;;;2.59;100.00;95867.44;5037046;28;20649;-74
2021/03/15 03:42:57;;;;;;;8.73;3.80;;;;;;;2.51;100.00;95868.13;5034742;28;20197;-74
2021/03/15 03:45:25;;;;;;;6.90;3.73;;;;;;;2.49;100.00;95864.81;5035734;28;20231;-74
2021/03/15 03:47:51;;;;;;;5.80;3.77;;;;;;;2.55;100.00;95866.88;5036450;28;20310;-74
2021/03/15 03:50:21;;;;;;;7.50;4.10;;;;;;;2.58;100.00;95864.03;5036931;28;20219;-74
2021/03/15 03:52:52;;;;;;;6.43;3.93;;;;;;;2.41;100.00;95859.47;5036629;28;20230;-74
2021/03/15 03:55:22;;;;;;;9.97;4.13;;;;;;;2.50;100.00;95852.66;5035467;28;20784;-74
2021/03/15 03:57:51;;;;;;;6.83;3.97;;;;;;;2.53;100.00;95857.56;5036846;28;20673;-74
2021/03/15 04:00:18;;;;;;;6.03;4.03;;;;;;;2.51;100.00;95852.50;5036880;28;20213;-74
2021/03/15 04:02:50;;;;;;;8.63;4.33;;;;;;;2.53;100.00;95852.38;5036776;28;20209;-74
2021/03/15 04:05:21;;;;;;;9.73;4.57;;;;;;;2.59;100.00;95846.63;5035767;28;20232;-74
2021/03/15 04:07:51;;;;;;;8.70;4.13;;;;;;;2.61;100.00;95842.94;5036665;28;20660;-74
2021/03/15 04:10:17;;;;;;;6.60;4.30;;;;;;;2.58;100.00;95845.81;5036507;28;20221;-74
2021/03/15 04:12:46;;;;;;;8.53;3.97;;;;;;;2.56;100.00;95839.09;5036903;28;20209;-74
2021/03/15 04:15:16;;;;;;;6.43;3.90;;;;;;;2.53;100.00;95837.59;5036031;28;20271;-74
2021/03/15 04:17:43;;;;;;;8.27;4.93;;;;;;;2.52;100.00;95829.91;5036416;28;20241;-74
2021/03/15 04:20:17;;;;;;;14.90;6.53;;;;;;;2.49;100.00;95825.81;5036830;28;20222;-74
2021/03/15 04:22:47;;;;;;;37.33;14.03;;;;;;;2.39;100.00;95823.38;5040332;28;20201;-74
2021/03/15 04:25:15;;;;;;;24.40;10.80;;;;;;;2.43;100.00;95823.78;5039542;28;20221;-74
2021/03/15 04:27:43;;;;;;;23.20;9.17;;;;;;;2.35;100.00;95824.59;5040166;28;20604;-74
2021/03/15 04:30:11;;;;;;;25.80;10.50;;;;;;;2.43;100.00;95823.78;5040802;28;20207;-74
2021/03/15 04:32:39;;;;;;;57.50;20.27;;;;;;;2.45;100.00;95819.25;5039329;28;20269;-74
2021/03/15 04:35:08;;;;;;;54.50;19.53;;;;;;;2.52;100.00;95809.94;5038795;28;20599;-74
2021/03/15 04:37:36;;;;;;;44.77;16.97;;;;;;;2.40;100.00;95816.25;5040461;28;20205;-74
2021/03/15 04:40:04;;;;;;;28.50;10.00;;;;;;;2.39;100.00;95807.78;5039989;28;20925;-74
2021/03/15 04:42:31;;;;;;;14.80;6.23;;;;;;;2.43;100.00;95805.59;5039168;28;20204;-74
2021/03/15 04:44:57;;;;;;;11.67;5.87;;;;;;;2.40;100.00;95806.81;5039732;28;20599;-74
2021/03/15 04:47:23;;;;;;;10.03;5.10;;;;;;;2.38;100.00;95798.31;5038996;28;20722;-74
2021/03/15 04:49:51;;;;;;;6.97;3.70;;;;;;;2.43;100.00;95796.94;5039333;28;20223;-74
2021/03/15 04:52:18;;;;;;;7.27;3.87;;;;;;;2.44;100.00;95793.41;5039766;28;20845;-74
2021/03/15 04:54:45;;;;;;;11.40;4.40;;;;;;;2.48;100.00;95800.78;5039502;28;20236;-74
2021/03/15 04:57:13;;;;;;;9.93;4.63;;;;;;;2.51;100.00;95799.69;5038683;28;20258;-73
2021/03/15 04:59:41;;;;;;;11.13;5.07;;;;;;;2.52;100.00;95802.16;5039502;28;20204;-74
2021/03/15 05:02:07;;;;;;;9.73;3.63;;;;;;;2.49;100.00;95794.59;5039448;28;20624;-74
2021/03/15 05:04:37;;;;;;;10.67;5.53;;;;;;;2.50;100.00;95792.84;5039135;28;20224;-74
2021/03/15 05:07:04;;;;;;;7.93;4.60;;;;;;;2.51;100.00;95790.09;5038523;28;20571;-74
2021/03/15 05:09:32;;;;;;;9.07;5.70;;;;;;;2.56;100.00;95787.09;5039609;28;20224;-74
2021/03/15 05:11:59;;;;;;;11.63;4.30;;;;;;;2.51;100.00;95794.50;5039147;28;20200;-74
2021/03/15 05:14:25;;;;;;;7.33;3.70;;;;;;;2.45;100.00;95782.84;5039019;28;20229;-74
2021/03/15 05:16:52;;;;;;;8.53;4.00;;;;;;;2.46;100.00;95787.09;5038221;28;20699;-73
2021/03/15 05:19:20;;;;;;;8.60;3.80;;;;;;;2.46;100.00;95784.50;5038944;28;20261;-74
2021/03/15 05:21:48;;;;;;;9.90;4.63;;;;;;;2.42;100.00;95783.13;5039139;28;20211;-73
2021/03/15 05:24:16;;;;;;;11.13;4.90;;;;;;;2.46;100.00;95787.09;5039121;28;20240;-73
2021/03/15 05:26:42;;;;;;;11.77;5.37;;;;;;;2.47;100.00;95786.16;5037858;28;20588;-73
2021/03/15 05:29:14;;;;;;;10.07;5.23;;;;;;;2.49;100.00;95779.00;5038862;28;20228;-74
2021/03/15 05:31:44;;;;;;;9.33;5.40;;;;;;;2.49;100.00;95776.41;5038909;28;20201;-73
2021/03/15 05:34:11;;;;;;;6.73;4.20;;;;;;;2.44;100.00;95772.59;5038419;28;20227;-73
2021/03/15 05:36:38;;;;;;;11.53;5.37;;;;;;;2.53;100.00;95764.78;5038176;28;20611;-74
2021/03/15 05:39:05;;;;;;;14.13;5.43;;;;;;;2.55;100.00;95765.47;5039368;28;20664;-73
2021/03/15 05:41:47;;;;;;;14.70;6.00;;;;;;;2.57;100.00;95767.91;5039191;28;20201;-73
2021/03/15 05:44:29;;;;;;;10.87;5.73;;;;;;;2.58;100.00;95761.75;5038639;28;20724;-74
2021/03/15 05:47:32;;;;;;;10.83;5.30;;;;;;;2.62;100.00;95750.94;5038190;28;20629;-74
2021/03/15 05:50:24;;;;;;;14.63;5.47;;;;;;;2.59;100.00;95756.41;5038798;28;20341;-73
2021/03/15 05:53:13;;;;;;;14.43;6.67;;;;;;;2.59;100.00;95751.22;5038729;28;20204;-74
2021/03/15 05:56:19;;;;;;;14.57;5.70;;;;;;;2.66;100.00;95741.91;5037952;28;20225;-71
2021/03/15 05:59:10;;;;;;;18.97;7.90;;;;;;;2.67;100.00;95742.72;5021073;28;20209;-71
2021/03/15 06:01:48;;;;;;;19.67;8.63;;;;;;;2.68;100.00;95739.97;5037918;28;20206;-73
2021/03/15 06:04:46;;;;;;;13.40;6.87;;;;;;;2.77;100.00;95744.31;5038403;28;20220;-74
2021/03/15 06:07:14;;;;;;;12.00;5.33;;;;;;;2.72;100.00;95741.31;5037363;28;20595;-74
2021/03/15 06:09:49;;;;;;;8.47;5.00;;;;;;;2.72;100.00;95749.13;5038287;28;20205;-74
2021/03/15 06:12:23;;;;;;;21.23;8.03;;;;;;;2.71;100.00;95739.69;5038484;28;20269;-74
2021/03/15 06:14:51;;;;;;;14.27;6.50;;;;;;;2.72;100.00;95741.31;5037673;28;20225;-74
2021/03/15 06:17:18;;;;;;;8.40;5.07;;;;;;;2.74;100.00;95734.19;5037379;28;20232;-73
2021/03/15 06:19:45;;;;;;;12.27;5.60;;;;;;;2.81;100.00;95732.66;5038405;28;20204;-74
2021/03/15 06:22:11;;;;;;;12.93;5.77;;;;;;;2.87;100.00;95723.47;5038155;28;20205;-74
2021/03/15 06:24:39;;;;;;;12.60;5.77;;;;;;;2.94;100.00;95725.38;5038673;28;20224;-74
2021/03/15 06:27:07;;;;;;;9.70;5.63;;;;;;;2.92;100.00;95718.66;5037661;28;20223;-74
2021/03/15 06:29:34;;;;;;;11.37;5.80;;;;;;;2.94;100.00;95717.56;5038490;28;20694;-73
2021/03/15 06:32:00;;;;;;;11.47;5.63;;;;;;;3.02;100.00;95720.25;5038376;28;20201;-74
2021/03/15 06:34:29;;;;;;;12.50;6.20;;;;;;;3.02;100.00;95707.25;5038183;28;20232;-74
2021/03/15 06:36:56;;;;;;;10.43;5.47;;;;;;;2.95;100.00;95710.56;5037370;28;20620;-73
2021/03/15 06:39:22;;;;;;;24.20;11.67;;;;;;;2.96;100.00;95704.41;5037379;28;20205;-73
2021/03/15 06:41:49;;;;;;;15.90;6.80;;;;;;;2.93;100.00;95702.91;5036832;28;20208;-73
2021/03/15 06:44:15;;;;;;;14.03;5.53;;;;;;;2.95;100.00;95706.16;5036634;28;20232;-73
2021/03/15 06:46:42;;;;;;;8.53;4.70;;;;;;;2.82;100.00;95699.69;5036839;28;20209;-73
2021/03/15 06:49:08;;;;;;;16.43;5.20;;;;;;;2.85;100.00;95708.03;5036696;28;20228;-73
2021/03/15 06:51:35;;;;;;;15.70;6.93;;;;;;;2.95;100.00;95695.75;5037411;28;20221;-73
2021/03/15 06:54:01;;;;;;;10.87;5.97;;;;;;;2.98;100.00;95700.69;5037985;28;20229;-73
2021/03/15 06:56:27;;;;;;;10.53;5.50;;;;;;;3.04;100.00;95695.72;5035585;28;20209;-73
2021/03/15 06:58:55;;;;;;;18.37;6.60;;;;;;;3.16;100.00;95694.56;5036711;28;20197;-73
2021/03/15 07:01:22;;;;;;;13.10;5.30;;;;;;;3.07;100.00;95692.81;5036971;28;20228;-73
2021/03/15 07:03:50;;;;;;;12.93;5.33;;;;;;;3.09;100.00;95684.88;5036529;28;20702;-73
2021/03/15 07:06:18;;;;;;;16.30;7.90;;;;;;;3.07;100.00;95685.03;5036783;28;20306;-73
2021/03/15 07:08:46;;;;;;;14.97;5.70;;;;;;;2.98;100.00;95684.25;5036878;28;20232;-73
2021/03/15 07:11:20;;;;;;;11.80;4.50;;;;;;;2.86;100.00;95680.22;5037323;28;20209;-73
2021/03/15 07:13:46;;;;;;;12.10;5.33;;;;;;;2.87;100.00;95681.84;5036749;28;20316;-73
2021/03/15 07:16:23;;;;;;;13.80;6.30;;;;;;;3.04;100.00;95674.06;5035731;28;20208;-73
2021/03/15 07:18:49;;;;;;;17.63;6.83;;;;;;;3.03;100.00;95675.06;5036112;28;20232;-73
2021/03/15 07:21:15;;;;;;;14.70;6.67;;;;;;;3.05;100.00;95670.50;5035467;28;20213;-73
2021/03/15 07:23:43;;;;;;;12.07;6.60;;;;;;;3.14;100.00;95673.09;5036089;28;20252;-73
2021/03/15 07:26:14;;;;;;;15.87;5.83;;;;;;;3.16;100.00;95667.72;5034341;28;20279;-73
2021/03/15 07:28:40;;;;;;;14.27;5.87;;;;;;;3.17;100.00;95666.75;5035102;28;20252;-73
2021/03/15 07:31:27;;;;;;;15.23;6.30;;;;;;;3.17;100.00;95669.34;5035424;28;20335;-73
2021/03/15 07:34:11;;;;;;;14.27;6.80;;;;;;;3.18;100.00;95666.63;5035606;28;20224;-73
2021/03/15 07:36:55;;;;;;;16.57;6.93;;;;;;;3.22;100.00;95667.13;5033755;28;20270;-73
2021/03/15 07:39:22;;;;;;;14.37;6.20;;;;;;;3.19;100.00;95657.00;5036259;28;20239;-73
2021/03/15 07:41:51;;;;;;;11.60;6.27;;;;;;;3.31;100.00;95667.06;5036076;28;20205;-73
2021/03/15 07:44:21;;;;;;;11.77;5.83;;;;;;;3.32;100.00;95662.69;5036427;28;20221;-73
2021/03/15 07:46:48;;;;;;;16.37;5.60;;;;;;;3.31;100.00;95650.63;5035581;28;20205;-73
2021/03/15 07:49:21;;;;;;;14.13;6.40;;;;;;;3.30;100.00;95649.00;5036236;28;20229;-73
2021/03/15 07:51:52;;;;;;;15.87;5.47;;;;;;;3.87;100.00;95644.97;5035518;28;20231;-74
2021/03/15 07:54:24;;;;;;;13.20;5.17;;;;;;;3.95;100.00;95650.22;5036060;28;20220;-73
2021/03/15 07:57:11;;;;;;;9.07;4.00;;;;;;;4.00;100.00;95640.19;5037205;28;20224;-74
2021/03/15 07:59:37;;;;;;;6.93;4.20;;;;;;;3.79;100.00;95641.47;5036558;28;20214;-73
2021/03/15 08:02:04;;;;;;;6.00;3.90;;;;;;;3.61;100.00;95635.44;5039822;28;20212;-73
2021/03/15 08:04:30;;;;;;;12.53;4.33;;;;;;;3.48;100.00;95644.63;5039303;28;20228;-73
2021/03/15 08:06:56;;;;;;;10.60;5.43;;;;;;;3.39;100.00;95645.50;5038493;28;21269;-73
2021/03/15 08:09:22;;;;;;;8.17;4.23;;;;;;;3.46;100.00;95633.53;5039476;28;20253;-73
2021/03/15 08:11:51;;;;;;;8.53;3.60;;;;;;;3.50;100.00;95633.09;5040151;28;20205;-74
2021/03/15 08:14:21;;;;;;;5.10;3.30;;;;;;;3.43;100.00;95642.44;5039055;28;20236;-73
2021/03/15 08:16:47;;;;;;;6.30;3.67;;;;;;;3.43;100.00;95646.84;5038111;28;20201;-73
2021/03/15 08:19:16;;;;;;;9.87;4.03;;;;;;;3.43;100.00;95654.66;5039361;28;20248;-73
2021/03/15 08:21:44;;;;;;;8.23;3.33;;;;;;;3.49;100.00;95648.84;5040004;28;20201;-73
2021/03/15 08:24:12;;;;;;;6.37;2.83;;;;;;;3.51;100.00;95642.53;5038542;28;20781;-73
2021/03/15 08:26:38;;;;;;;5.27;2.33;;;;;;;3.54;100.00;95646.59;5038210;28;20296;-73
2021/03/15 08:29:05;;;;;;;6.17;3.30;;;;;;;3.68;100.00;95641.72;5038724;28;20324;-73
2021/03/15 08:31:36;;;;;;;6.83;2.93;;;;;;;3.74;100.00;95647.16;5039094;28;20687;-73
2021/03/15 08:34:03;;;;;;;3.93;2.43;;;;;;;3.66;100.00;95647.06;5039014;28;20229;-73
2021/03/15 08:36:38;;;;;;;5.90;2.30;;;;;;;3.70;100.00;95643.22;5038529;28;21018;-73
2021/03/15 08:39:32;;;;;;;4.40;2.33;;;;;;;3.83;100.00;95627.16;5037449;28;20229;-73
2021/03/15 08:42:25;;;;;;;6.07;2.50;;;;;;;3.92;100.00;95632.31;5037766;28;20201;-73
2021/03/15 08:44:52;;;;;;;5.20;2.10;;;;;;;3.80;100.00;95633.50;5038465;28;20716;-73
2021/03/15 08:47:48;;;;;;;2.27;1.33;;;;;;;3.85;100.00;95626.03;5037727;28;20772;-73
2021/03/15 08:50:43;;;;;;;5.53;2.60;;;;;;;3.87;100.00;95629.34;5033833;28;20240;-73
2021/03/15 08:53:09;;;;;;;5.57;2.33;;;;;;;3.89;100.00;95614.34;5038481;28;20205;-73
2021/03/15 08:55:53;;;;;;;4.63;1.93;;;;;;;3.83;100.00;95622.78;5037728;28;20225;-73
2021/03/15 08:58:37;;;;;;;5.17;2.83;;;;;;;3.85;100.00;95625.25;5038481;28;20201;-73
2021/03/15 09:01:03;;;;;;;3.07;1.80;;;;;;;3.87;100.00;95613.69;5038431;28;21227;-70
2021/03/15 09:03:50;;;;;;;3.47;2.33;;;;;;;3.88;100.00;95611.91;5037942;28;20673;-71
2021/03/15 09:06:47;;;;;;;4.23;2.60;;;;;;;3.92;100.00;95611.47;5036894;28;20205;-70
2021/03/15 09:09:14;;;;;;;3.97;2.30;;;;;;;3.92;100.00;95610.63;5038336;28;20225;-70
2021/03/15 09:11:49;;;;;;;2.63;2.07;;;;;;;3.91;100.00;95612.41;5037772;28;20278;-70
2021/03/15 09:14:37;;;;;;;5.13;2.47;;;;;;;3.93;100.00;95613.06;5038568;28;20746;-70
2021/03/15 09:17:33;;;;;;;4.60;2.20;;;;;;;4.07;100.00;95609.91;5036845;28;20323;-70
2021/03/15 09:20:16;;;;;;;1.93;1.47;;;;;;;4.03;100.00;95615.59;5038255;28;20205;-70
2021/03/15 09:22:42;;;;;;;3.73;2.53;;;;;;;4.07;100.00;95609.91;5038527;28;20201;-71
2021/03/15 09:25:18;;;;;;;4.20;2.67;;;;;;;4.02;100.00;95614.78;5037070;28;20221;-70
2021/03/15 09:27:45;;;;;;;4.37;2.27;;;;;;;3.96;100.00;95623.22;5038120;28;20722;-70
2021/03/15 09:30:17;;;;;;;2.67;1.73;;;;;;;3.84;100.00;95619.19;5037905;28;20232;-71
2021/03/15 09:32:45;;;;;;;3.60;2.10;;;;;;;3.80;100.00;95609.25;5034860;28;20212;-70
2021/03/15 09:35:21;;;;;;;3.67;2.10;;;;;;;3.81;100.00;95619.50;5033278;28;20229;-70
2021/03/15 09:37:50;;;;;;;3.60;1.80;;;;;;;3.75;100.00;95625.31;5037525;28;20204;-70
2021/03/15 09:40:18;;;;;;;2.30;1.70;;;;;;;3.72;100.00;95617.81;5037951;28;20205;-71
2021/03/15 09:42:44;;;;;;;4.37;2.00;;;;;;;3.65;100.00;95623.75;5036012;28;20213;-70
2021/03/15 09:45:13;;;;;;;4.17;1.97;;;;;;;3.60;100.00;95615.56;5036631;28;20861;-70
2021/03/15 09:47:39;;;;;;;5.73;2.50;;;;;;;3.57;100.00;95615.06;5037345;28;20315;-71
2021/03/15 09:50:17;;;;;;;3.00;2.17;;;;;;;3.59;100.00;95615.72;5037031;28;21387;-70
2021/03/15 09:52:43;;;;;;;3.37;1.53;;;;;;;3.58;100.00;95593.25;5037284;28;20228;-70
2021/03/15 09:55:10;;;;;;;2.40;1.73;;;;;;;3.58;100.00;95614.09;5036634;28;20228;-70
2021/03/15 09:57:36;;;;;;;2.97;1.37;;;;;;;3.63;100.00;95620.50;5037024;28;20296;-70
2021/03/15 10:00:08;;;;;;;3.23;2.10;;;;;;;3.66;100.00;95621.00;5037224;28;20263;-70
2021/03/15 10:02:34;;;;;;;4.73;2.73;;;;;;;3.83;100.00;95617.56;5037053;28;20216;-70
2021/03/15 10:05:00;;;;;;;3.20;2.03;;;;;;;3.92;100.00;95621.88;5036127;28;20612;-70
2021/03/15 10:07:27;;;;;;;3.07;1.47;;;;;;;4.06;100.00;95608.28;5036007;28;20234;-70
2021/03/15 10:09:53;;;;;;;4.77;2.90;;;;;;;4.17;100.00;95615.03;5037076;28;20209;-70
2021/03/15 10:12:21;;;;;;;2.90;2.10;;;;;;;4.32;100.00;95614.31;5036850;28;20684;-71
2021/03/15 10:14:58;;;;;;;3.23;2.10;;;;;;;4.35;100.00;95609.63;5036675;28;20221;-70
2021/03/15 10:17:25;;;;;;;1.50;1.10;;;;;;;4.31;100.00;95613.47;5036360;28;20209;-70
2021/03/15 10:19:51;;;;;;;3.73;1.93;;;;;;;4.20;100.00;95605.13;5036077;28;20255;-70
2021/03/15 10:22:18;;;;;;;4.27;3.00;;;;;;;4.19;100.00;95611.31;5036376;28;20267;-70
2021/03/15 10:24:46;;;;;;;3.03;2.13;;;;;;;4.14;100.00;95608.34;5036227;28;20235;-70
2021/03/15 10:27:17;;;;;;;3.27;2.13;;;;;;;4.23;100.00;95625.69;5035254;28;20732;-70
2021/03/15 10:29:50;;;;;;;4.80;2.63;;;;;;;4.37;100.00;95617.28;5036195;28;20312;-71
2021/03/15 10:32:20;;;;;;;4.80;2.10;;;;;;;4.39;100.00;95612.72;5036364;28;20661;-71
2021/03/15 10:34:50;;;;;;;7.47;3.13;;;;;;;4.52;100.00;95610.50;5036187;28;20240;-70
2021/03/15 10:37:17;;;;;;;9.63;3.60;;;;;;;4.71;100.00;95612.88;5035598;28;20731;-71
2021/03/15 10:39:44;;;;;;;12.40;5.70;;;;;;;4.54;100.00;95606.75;5035994;28;20197;-71
2021/03/15 10:42:12;;;;;;;4.30;2.13;;;;;;;4.47;100.00;95607.56;5037279;28;20219;-71
2021/03/15 10:44:38;;;;;;;7.80;4.40;;;;;;;4.45;100.00;95618.13;5036214;28;20221;-70
2021/03/15 10:47:04;;;;;;;3.50;1.97;;;;;;;4.50;100.00;95605.44;5035437;28;20205;-71
2021/03/15 10:49:32;;;;;;;4.90;2.23;;;;;;;4.44;100.00;95606.09;5036458;28;20719;-71
2021/03/15 10:51:59;;;;;;;3.97;2.47;;;;;;;4.49;100.00;95605.59;5036671;28;20212;-71
2021/03/15 10:54:33;;;;;;;4.13;2.37;;;;;;;4.47;100.00;95599.75;5035810;28;20225;-70
2021/03/15 10:57:09;;;;;;;3.03;1.70;;;;;;;4.46;100.00;95605.94;5035340;28;20208;-71
2021/03/15 10:59:36;;;;;;;2.10;1.57;;;;;;;4.48;100.00;95610.00;5036169;28;20201;-71
2021/03/15 11:02:02;;;;;;;4.40;1.80;;;;;;;4.43;100.00;95611.44;5034617;28;20208;-72
2021/03/15 11:04:32;;;;;;;2.03;1.43;;;;;;;4.47;100.00;95600.53;5035288;28;20217;-73
2021/03/15 11:06:58;;;;;;;3.90;2.33;;;;;;;4.50;100.00;95607.25;5033970;28;20239;-73
2021/03/15 11:09:24;;;;;;;3.03;2.00;;;;;;;4.63;100.00;95602.41;5035447;28;20632;-73
2021/03/15 11:11:54;;;;;;;1.90;1.70;;;;;;;4.67;100.00;95607.16;5035813;28;20220;-73
2021/03/15 11:14:20;;;;;;;2.47;1.80;;;;;;;4.73;100.00;95603.13;5035245;28;20671;-73
2021/03/15 11:16:59;;;;;;;6.90;2.93;;;;;;;4.92;100.00;95599.25;5035368;28;20262;-73
2021/03/15 11:19:25;;;;;;;7.63;3.17;;;;;;;4.93;100.00;95589.66;5034984;28;20205;-73
2021/03/15 11:21:52;;;;;;;5.40;2.87;;;;;;;4.94;100.00;95607.75;5036374;28;21161;-73
2021/03/15 11:24:27;;;;;;;8.60;2.83;;;;;;;5.00;100.00;95598.47;5036225;28;20289;-73
2021/03/15 11:26:54;;;;;;;2.40;1.97;;;;;;;5.08;100.00;95606.34;5035036;28;20212;-73
2021/03/15 11:29:35;;;;;;;4.23;2.40;;;;;;;4.91;100.00;95608.09;5035669;28;20228;-73
2021/03/15 11:32:09;;;;;;;3.30;2.27;;;;;;;4.87;100.00;95598.09;5036181;28;20201;-73
2021/03/15 11:34:45;;;;;;;3.23;1.67;;;;;;;4.85;100.00;95603.47;5035100;28;20240;-73
2021/03/15 11:37:11;;;;;;;4.23;2.60;;;;;;;4.80;100.00;95599.72;5034803;28;20204;-73
2021/03/15 11:39:39;;;;;;;4.17;2.93;;;;;;;4.86;100.00;95599.91;5034790;28;20201;-73
2021/03/15 11:42:22;;;;;;;3.40;2.10;;;;;;;4.80;100.00;95604.09;5034995;28;20197;-73
2021/03/15 11:44:48;;;;;;;4.10;2.10;;;;;;;4.85;100.00;95602.69;5035239;28;21116;-73
2021/03/15 11:47:15;;;;;;;4.40;2.50;;;;;;;4.82;100.00;95595.16;5035091;28;20957;-73